Sunday, December 21, 2014
11:23 UTC
  |  Log In   |  Register Free
Airport Search:

Enterprise Municipal Airport
(KEDN)

Enterprise Municipal Airport Diagram
No Airport Diagram Available

FAA data valid effective November 13, 2014 - January 08, 2015 (unless otherwise noted).

 
 
 
 
 
 
 
 
 
 
 
 
 
 

Current Aviation Weather for Enterprise Municipal Airport (KEDN)

The most recent METAR observation for KEDN was updated at: 2116
METAR Summary (Translated METAR)
KEDN
182055Z AUTO 00000KT 10SM SCT120 16/00 A3009 RMK AO2
KSXS
182056Z AUTO VRB03KT 10SM CLR 18/00 A3011 RMK AO2 SLP198 T01791001 57019
(4.6 nm NE from KEDN)
KLOR
182053Z AUTO VRB04KT 10SM SCT110 18/00 A3008 RMK AO2 SLP186 T01780000 56021 TSNO $
(8.3 nm NE from KEDN)
TAF
No TAF information found within 50 nm of KLOR
  Airport Weather Conditions for KEDN

 Current Weather at EDN
52° F
Overcast
Northeast winds at 3.5 mph
EDN NOAA Radar

Pressure: 30.11 in
Humidity: 94%
Wind: Northeast at 3.5 MPH (3 KT)
Dew Point: 50.0°F
Visibility: 10.00 mi


Airport Weather Forecast for KEDN

Translated METAR and TAF for KLOR
Translated METAR for KLOR (1123 UTC 21 December 2014)
found at http://aviationweather.gov/adds/metars/
 
METAR text: KLOR 211053Z AUTO 06005KT 8SM FEW010 OVC027 12/10 A3011 RMK AO2 SLP194 T01220100 TSNO PNO $
Conditions at: KLOR (LOWE AHP/FT. RUC, AL, US) observed 1053 UTC 21 December 2014
Temperature: 12.2°C (54°F)
Dewpoint: 10.0°C (50°F) [RH = 86%]
Pressure (altimeter): 30.11 inches Hg (1019.7 mb)
[Sea-level pressure: 1019.4 mb]
Winds: from the ENE (60 degrees) at 6 MPH (5 knots; 2.6 m/s)
Visibility: 8 miles (13 km)
Ceiling: 2700 feet AGL
Clouds: few clouds at 1000 feet AGL
overcast cloud deck at 2700 feet AGL
Weather:
SOME DATA ABOVE MAY BE INACCURATE!!!
"$" is an indication the sensor requires maintenance
Translated TAF for KLOR

There is no translated TAF available for this airport

Find All Airport Services Find A Hotel Find A Rental Car Find A Golf Course Find A Restaurant $100 Hamburger



FBO's on the Field
FBO Company Facility Photos Services Transportation Aviation Fuel Prices: Prices include tax
Catering Weather Repair Courtesy Rental Type 100LL JetA JetA+ MOGAS 8087
 
Enterprise Municipal Airport

This FBO has not yet been rated
FS:Epic
Last Updated: Dec-15
Login to update fuel prices
SS:
Contact Enterprise Municipal AirportMore FBO Information
 
Add another FBO Facility Photos Catering Weather Repair Courtesy Rental Type 100LL JetA JetA+ MOGAS 8087
Services Transportation Aviation Fuel Prices: Prices include tax


model-print
model-print
model-print
model-print